createdAt,value
2022-08-02T00:00:10.918Z,101056.75
2022-08-02T00:02:37.554Z,101052.53
2022-08-02T00:05:05.035Z,101054.03
2022-08-02T00:07:31.768Z,101054.72
2022-08-02T00:09:58.406Z,101048.06
2022-08-02T00:12:25.549Z,101055.16
2022-08-02T00:14:52.850Z,101053.00
2022-08-02T00:17:19.695Z,101057.41
2022-08-02T00:19:46.354Z,101053.50
2022-08-02T00:22:13.633Z,101055.19
2022-08-02T00:24:40.613Z,101050.53
2022-08-02T00:27:09.599Z,101057.78
2022-08-02T00:29:42.464Z,101052.53
2022-08-02T00:32:19.429Z,101048.44
2022-08-02T00:34:45.884Z,101049.34
2022-08-02T00:37:12.388Z,101054.13
2022-08-02T00:39:38.871Z,101048.38
2022-08-02T00:42:05.452Z,101047.50
2022-08-02T00:44:32.017Z,101046.19
2022-08-02T00:46:58.564Z,101038.00
2022-08-02T00:49:25.085Z,101039.56
2022-08-02T00:51:51.865Z,101043.31
2022-08-02T00:54:19.775Z,101053.34
2022-08-02T00:56:49.634Z,101059.69
2022-08-02T00:59:18.076Z,101054.63
2022-08-02T01:01:57.023Z,101058.16
2022-08-02T01:04:30.647Z,101061.19
2022-08-02T01:07:12.951Z,101066.13
2022-08-02T01:09:45.651Z,101059.56
2022-08-02T01:12:13.474Z,101065.06
2022-08-02T01:14:46.091Z,101063.75
2022-08-02T01:17:20.190Z,101063.59
2022-08-02T01:20:18.909Z,101074.81
2022-08-02T01:23:04.239Z,101068.34
2022-08-02T01:26:07.957Z,101073.81
2022-08-02T01:28:34.445Z,101080.44
2022-08-02T01:31:26.693Z,101074.81
2022-08-02T01:34:06.149Z,101065.31
2022-08-02T01:36:41.537Z,101074.31
2022-08-02T01:39:12.303Z,101065.00
2022-08-02T01:41:58.934Z,101065.88
2022-08-02T01:44:38.016Z,101056.25
2022-08-02T01:47:17.852Z,101050.38
2022-08-02T01:49:47.959Z,101049.69
2022-08-02T01:52:22.854Z,101052.50
2022-08-02T01:54:59.297Z,101057.50
2022-08-02T01:57:30.690Z,101053.84
2022-08-02T02:00:01.651Z,101052.13
2022-08-02T02:02:31.888Z,101051.94
2022-08-02T02:05:01.975Z,101051.31
2022-08-02T02:07:31.980Z,101047.63
2022-08-02T02:10:00.380Z,101047.41
2022-08-02T02:12:28.624Z,101049.81
2022-08-02T02:14:57.460Z,101049.25
2022-08-02T02:17:52.619Z,101045.25
2022-08-02T02:20:17.932Z,101047.06
2022-08-02T02:22:45.415Z,101049.13
2022-08-02T02:25:18.309Z,101055.09
2022-08-02T02:28:30.000Z,101057.81
2022-08-02T02:31:08.088Z,101053.66
2022-08-02T02:33:40.671Z,101055.63
2022-08-02T02:36:10.845Z,101051.09
2022-08-02T02:38:39.645Z,101056.34
2022-08-02T02:41:07.018Z,101057.78
2022-08-02T02:43:36.536Z,101054.88
2022-08-02T02:46:06.179Z,101051.09
2022-08-02T02:48:34.873Z,101052.81
2022-08-02T02:51:04.817Z,101048.03
2022-08-02T02:54:30.089Z,101046.47
2022-08-02T02:56:20.345Z,101051.94
2022-08-02T02:58:47.396Z,101048.31
2022-08-02T03:01:55.864Z,101046.97
2022-08-02T03:04:20.352Z,101043.19
2022-08-02T03:06:47.074Z,101044.41
2022-08-02T03:09:13.907Z,101038.34
2022-08-02T03:11:41.359Z,101046.44
2022-08-02T03:14:12.453Z,101041.03
2022-08-02T03:16:44.212Z,101053.59
2022-08-02T03:19:10.807Z,101045.25
2022-08-02T03:21:37.642Z,101040.31
2022-08-02T03:24:04.976Z,101045.03
2022-08-02T03:26:31.478Z,101042.78
2022-08-02T03:28:57.979Z,101050.91
2022-08-02T03:31:24.471Z,101049.38
2022-08-02T03:33:51.254Z,101044.75
2022-08-02T03:36:21.345Z,101045.28
2022-08-02T03:38:49.090Z,101046.47
2022-08-02T03:41:18.126Z,101042.94
2022-08-02T03:43:46.953Z,101038.94
2022-08-02T03:46:15.841Z,101041.16
2022-08-02T03:48:43.189Z,101046.66
2022-08-02T03:51:10.783Z,101047.28
2022-08-02T03:53:38.564Z,101046.53
2022-08-02T03:56:05.740Z,101041.66
2022-08-02T03:58:32.733Z,101047.69
2022-08-02T04:00:59.768Z,101043.81
2022-08-02T04:03:26.697Z,101042.19
2022-08-02T04:06:03.761Z,101047.75
2022-08-02T04:08:35.637Z,101048.41
2022-08-02T04:11:23.045Z,101049.88
2022-08-02T04:13:49.813Z,101048.50
2022-08-02T04:16:21.425Z,101049.75
2022-08-02T04:18:55.791Z,101049.28
2022-08-02T04:21:26.235Z,101057.81
2022-08-02T04:23:53.948Z,101060.22
2022-08-02T04:26:28.362Z,101052.19
2022-08-02T04:28:55.757Z,101048.28
2022-08-02T04:31:23.818Z,101056.84
2022-08-02T04:33:50.879Z,101061.69
2022-08-02T04:36:31.564Z,101063.66
2022-08-02T04:38:58.768Z,101062.78
2022-08-02T04:41:41.056Z,101058.16
2022-08-02T04:44:10.409Z,101071.56
2022-08-02T04:46:37.950Z,101064.50
2022-08-02T04:49:04.876Z,101072.78
2022-08-02T04:51:38.643Z,101076.09
2022-08-02T04:54:10.062Z,101069.59
2022-08-02T04:56:40.667Z,101069.47
2022-08-02T04:59:07.360Z,101085.31
2022-08-02T05:01:35.629Z,101083.00
2022-08-02T05:04:02.682Z,101075.81
2022-08-02T05:06:29.231Z,101074.59
2022-08-02T05:08:55.927Z,101067.41
2022-08-02T05:11:36.565Z,101060.56
2022-08-02T05:14:05.188Z,101060.19
2022-08-02T05:16:32.274Z,101054.38
2022-08-02T05:19:03.160Z,101053.16
2022-08-02T05:21:31.415Z,101046.94
2022-08-02T05:23:57.904Z,101048.78
2022-08-02T05:26:24.358Z,101051.59
2022-08-02T05:28:50.842Z,101051.22
2022-08-02T05:31:17.306Z,101050.00
2022-08-02T05:33:43.815Z,101048.00
2022-08-02T05:36:10.310Z,101050.81
2022-08-02T05:38:37.890Z,101062.31
2022-08-02T05:41:05.699Z,101059.97
2022-08-02T05:43:32.549Z,101050.31
2022-08-02T05:45:59.165Z,101063.50
2022-08-02T05:48:31.130Z,101065.22
2022-08-02T05:51:07.068Z,101062.44
2022-08-02T05:53:51.537Z,101063.88
2022-08-02T05:56:27.008Z,101064.91
2022-08-02T05:59:17.402Z,101079.44
2022-08-02T06:01:48.436Z,101072.88
2022-08-02T06:04:24.690Z,101072.56
2022-08-02T06:06:55.316Z,101072.03
2022-08-02T06:09:26.986Z,101073.69
2022-08-02T06:12:01.369Z,101077.06
2022-08-02T06:14:33.332Z,101074.47
2022-08-02T06:17:04.419Z,101065.91
2022-08-02T06:19:47.054Z,101073.88
2022-08-02T06:22:34.513Z,101063.25
2022-08-02T06:25:04.446Z,101065.09
2022-08-02T06:27:31.682Z,101066.00
2022-08-02T06:29:58.548Z,101070.75
2022-08-02T06:32:27.399Z,101059.84
2022-08-02T06:34:54.083Z,101062.13
2022-08-02T06:37:27.596Z,101066.91
2022-08-02T06:40:17.348Z,101058.09
2022-08-02T06:42:58.957Z,101064.81
2022-08-02T06:45:25.460Z,101065.41
2022-08-02T06:47:51.957Z,101070.25
2022-08-02T06:50:18.540Z,101054.41
2022-08-02T06:52:45.038Z,101050.44
2022-08-02T06:55:11.545Z,101053.94
2022-08-02T06:57:38.110Z,101060.94
2022-08-02T07:00:09.061Z,101061.50
2022-08-02T07:02:37.256Z,101063.88
2022-08-02T07:05:04.816Z,101057.31
2022-08-02T07:07:31.393Z,101048.78
2022-08-02T07:10:01.323Z,101056.94
2022-08-02T07:12:32.458Z,101056.22
2022-08-02T07:15:00.504Z,101052.88
2022-08-02T07:17:27.881Z,101059.00
2022-08-02T07:19:54.837Z,101055.41
2022-08-02T07:22:23.551Z,101052.88
2022-08-02T07:24:51.402Z,101049.16
2022-08-02T07:27:18.014Z,101046.34
2022-08-02T07:29:46.262Z,101043.31
2022-08-02T07:32:23.547Z,101032.78
2022-08-02T07:34:53.534Z,101032.78
2022-08-02T07:37:53.759Z,101038.13
2022-08-02T07:40:13.428Z,101036.34
2022-08-02T07:42:42.596Z,101014.91
2022-08-02T07:45:10.003Z,101009.28
2022-08-02T07:47:38.546Z,100995.84
2022-08-02T07:50:06.821Z,100996.16
2022-08-02T07:52:33.390Z,100989.38
2022-08-02T07:54:59.947Z,100993.63
2022-08-02T07:57:26.524Z,100989.19
2022-08-02T07:59:53.030Z,100983.09
2022-08-02T08:02:19.834Z,100981.47
2022-08-02T08:04:46.278Z,100975.78
2022-08-02T08:07:13.104Z,100983.56
2022-08-02T08:09:41.821Z,100989.56
2022-08-02T08:12:09.709Z,100982.91
2022-08-02T08:14:36.602Z,100985.00
2022-08-02T08:17:03.574Z,100988.84
2022-08-02T08:19:50.002Z,100982.69
2022-08-02T08:22:16.592Z,100978.69
2022-08-02T08:24:43.193Z,100977.53
2022-08-02T08:27:14.430Z,100993.00
2022-08-02T08:29:44.728Z,100992.63
2022-08-02T08:32:17.553Z,100992.06
2022-08-02T08:34:48.218Z,100993.06
2022-08-02T08:37:16.915Z,100975.41
2022-08-02T08:39:56.312Z,100975.34
2022-08-02T08:42:28.924Z,100983.72
2022-08-02T08:44:57.431Z,100977.56
2022-08-02T08:47:33.369Z,100982.19
2022-08-02T08:50:04.964Z,100977.13
2022-08-02T08:53:01.410Z,100981.53
2022-08-02T08:55:29.434Z,100964.19
2022-08-02T08:57:58.491Z,100966.09
2022-08-02T09:00:25.087Z,100960.88
2022-08-02T09:02:51.691Z,100959.25
2022-08-02T09:05:18.255Z,100957.94
2022-08-02T09:07:49.430Z,100962.97
2022-08-02T09:10:42.651Z,100953.84
2022-08-02T09:13:38.127Z,100946.53
2022-08-02T09:16:11.580Z,100949.78
2022-08-02T09:18:47.639Z,100954.16
2022-08-02T09:21:16.903Z,100951.34
2022-08-02T09:23:46.094Z,100949.19
2022-08-02T09:26:16.456Z,100950.16
2022-08-02T09:28:46.545Z,100937.31
2022-08-02T09:31:22.436Z,100936.59
2022-08-02T09:33:57.295Z,100937.00
2022-08-02T09:36:24.710Z,100938.28
2022-08-02T09:39:01.381Z,100935.72
2022-08-02T09:41:32.849Z,100937.38
2022-08-02T09:44:05.184Z,100936.69
2022-08-02T09:46:40.993Z,100932.41
2022-08-02T09:49:16.754Z,100937.53
2022-08-02T09:51:49.584Z,100934.06
2022-08-02T09:54:23.142Z,100932.19
2022-08-02T09:56:50.591Z,100927.53
2022-08-02T09:59:19.004Z,100926.06
2022-08-02T10:01:51.364Z,100914.75
2022-08-02T10:04:30.808Z,100918.84
2022-08-02T10:06:59.650Z,100913.78
2022-08-02T10:09:28.852Z,100911.19
2022-08-02T10:11:55.438Z,100910.72
2022-08-02T10:14:23.191Z,100911.38
2022-08-02T10:16:50.156Z,100909.97
2022-08-02T10:19:16.669Z,100903.41
2022-08-02T10:21:52.628Z,100908.44
2022-08-02T10:24:23.464Z,100912.16
2022-08-02T10:26:49.933Z,100915.66
2022-08-02T10:29:21.314Z,100912.69
2022-08-02T10:31:54.203Z,100898.22
2022-08-02T10:34:27.301Z,100906.19
2022-08-02T10:37:02.817Z,100903.03
2022-08-02T10:39:38.770Z,100905.72
2022-08-02T10:42:05.472Z,100902.16
2022-08-02T10:44:33.716Z,100902.78
2022-08-02T10:47:15.632Z,100905.22
2022-08-02T10:50:07.051Z,100893.44
2022-08-02T10:52:33.833Z,100901.28
2022-08-02T10:55:01.352Z,100907.06
2022-08-02T10:57:30.374Z,100912.03
2022-08-02T11:00:32.633Z,100903.97
2022-08-02T11:02:59.153Z,100894.19
2022-08-02T11:05:43.178Z,100894.50
2022-08-02T11:08:21.010Z,100890.94
2022-08-02T11:10:48.221Z,100892.69
2022-08-02T11:13:16.851Z,100884.56
2022-08-02T11:16:01.470Z,100881.97
2022-08-02T11:18:50.882Z,100890.19
2022-08-02T11:21:59.731Z,100876.25
2022-08-02T11:24:40.383Z,100879.56
2022-08-02T11:27:08.989Z,100886.59
2022-08-02T11:29:43.754Z,100875.34
2022-08-02T11:32:20.217Z,100878.63
2022-08-02T11:34:49.055Z,100873.09
2022-08-02T11:37:32.628Z,100878.34
2022-08-02T11:39:59.164Z,100877.50
2022-08-02T11:42:36.109Z,100874.94
2022-08-02T11:45:08.131Z,100875.53
2022-08-02T11:47:48.722Z,100866.06
2022-08-02T11:50:15.995Z,100882.03
2022-08-02T11:52:42.966Z,100881.66
2022-08-02T11:55:10.673Z,100881.56
2022-08-02T11:58:03.298Z,100885.88
2022-08-02T12:00:26.980Z,100879.03
2022-08-02T12:02:57.280Z,100869.69
2022-08-02T12:05:39.137Z,100873.63
2022-08-02T12:08:10.568Z,100874.16
2022-08-02T12:10:47.770Z,100866.34
2022-08-02T12:13:14.493Z,100869.91
2022-08-02T12:15:45.192Z,100863.25
2022-08-02T12:18:33.619Z,100863.09
2022-08-02T12:21:00.725Z,100865.97
2022-08-02T12:23:28.443Z,100864.78
2022-08-02T12:26:03.209Z,100851.34
2022-08-02T12:28:34.811Z,100856.69
2022-08-02T12:31:04.137Z,100859.78
2022-08-02T12:33:49.750Z,100851.28
2022-08-02T12:36:19.808Z,100852.28
2022-08-02T12:38:58.508Z,100853.97
2022-08-02T12:41:31.725Z,100846.59
2022-08-02T12:43:59.631Z,100839.91
2022-08-02T12:46:26.158Z,100835.97
2022-08-02T12:49:16.727Z,100841.50
2022-08-02T12:51:56.531Z,100836.34
2022-08-02T12:54:32.734Z,100831.13
2022-08-02T12:57:17.094Z,100830.25
2022-08-02T12:59:49.304Z,100843.72
2022-08-02T13:02:17.022Z,100828.25
2022-08-02T13:04:49.888Z,100820.06
2022-08-02T13:07:17.987Z,100817.53
2022-08-02T13:09:45.946Z,100808.28
2022-08-02T13:12:13.013Z,100807.16
2022-08-02T13:14:41.847Z,100806.00
2022-08-02T13:17:11.380Z,100796.09
2022-08-02T13:19:38.607Z,100807.13
2022-08-02T13:22:05.997Z,100806.91
2022-08-02T13:24:40.250Z,100800.72
2022-08-02T13:27:21.627Z,100800.31
2022-08-02T13:29:51.366Z,100797.75
2022-08-02T13:32:17.934Z,100803.78
2022-08-02T13:34:44.490Z,100795.97
2022-08-02T13:37:11.244Z,100793.56
2022-08-02T13:39:37.859Z,100791.88
2022-08-02T13:42:05.747Z,100785.38
2022-08-02T13:44:33.081Z,100777.59
2022-08-02T13:46:59.553Z,100783.63
2022-08-02T13:49:51.407Z,100775.47
2022-08-02T13:52:13.137Z,100772.56
2022-08-02T13:54:40.016Z,100767.38
2022-08-02T13:57:06.605Z,100769.50
2022-08-02T13:59:57.022Z,100769.09
2022-08-02T14:02:19.789Z,100755.09
2022-08-02T14:04:46.335Z,100761.22
2022-08-02T14:07:12.905Z,100766.22
2022-08-02T14:09:40.455Z,100761.22
2022-08-02T14:12:09.582Z,100759.50
2022-08-02T14:14:36.651Z,100763.94
2022-08-02T14:17:03.161Z,100766.22
2022-08-02T14:19:29.838Z,100766.22
2022-08-02T14:22:12.049Z,100761.59
2022-08-02T14:24:40.013Z,100764.94
2022-08-02T14:27:06.606Z,100772.34
2022-08-02T14:29:33.186Z,100768.38
2022-08-02T14:31:59.754Z,100763.31
2022-08-02T14:34:26.262Z,100756.56
2022-08-02T14:36:54.040Z,100758.59
2022-08-02T14:39:21.224Z,100757.41
2022-08-02T14:42:00.212Z,100750.25
2022-08-02T14:44:30.150Z,100753.69
2022-08-02T14:46:57.349Z,100750.91
2022-08-02T14:49:25.258Z,100753.03
2022-08-02T14:51:53.887Z,100752.16
2022-08-02T14:54:20.694Z,100743.78
2022-08-02T14:56:55.757Z,100745.84
2022-08-02T14:59:32.674Z,100751.44
2022-08-02T15:01:59.656Z,100743.78
2022-08-02T15:04:26.368Z,100741.03
2022-08-02T15:06:53.401Z,100744.81
2022-08-02T15:09:20.648Z,100735.53
2022-08-02T15:11:49.180Z,100733.94
2022-08-02T15:14:22.038Z,100733.53
2022-08-02T15:16:58.110Z,100733.16
2022-08-02T15:19:26.465Z,100731.97
2022-08-02T15:22:13.221Z,100730.69
2022-08-02T15:24:42.992Z,100735.13
2022-08-02T15:27:13.355Z,100726.09
2022-08-02T15:29:40.154Z,100723.44
2022-08-02T15:32:06.729Z,100727.78
2022-08-02T15:34:33.271Z,100724.84
2022-08-02T15:36:59.731Z,100726.78
2022-08-02T15:39:26.215Z,100724.84
2022-08-02T15:41:52.809Z,100716.22
2022-08-02T15:44:19.378Z,100719.28
2022-08-02T15:46:45.867Z,100716.06
2022-08-02T15:49:12.385Z,100720.53
2022-08-02T15:51:38.890Z,100712.53
2022-08-02T15:54:05.525Z,100727.09
2022-08-02T15:56:32.053Z,100719.78
2022-08-02T15:58:59.104Z,100723.41
2022-08-02T16:01:32.134Z,100716.91
2022-08-02T16:04:04.927Z,100723.03
2022-08-02T16:06:31.572Z,100714.91
2022-08-02T16:08:58.065Z,100721.56
2022-08-02T16:11:24.561Z,100715.97
2022-08-02T16:13:54.205Z,100710.25
2022-08-02T16:16:29.324Z,100710.16
2022-08-02T16:18:56.415Z,100703.38
2022-08-02T16:21:24.637Z,100699.19
2022-08-02T16:23:58.977Z,100704.41
2022-08-02T16:26:29.732Z,100692.22
2022-08-02T16:28:56.859Z,100700.63
2022-08-02T16:31:23.874Z,100698.09
2022-08-02T16:33:50.436Z,100698.00
2022-08-02T16:36:22.605Z,100706.81
2022-08-02T16:38:49.122Z,100688.78
2022-08-02T16:41:16.346Z,100693.59
2022-08-02T16:43:43.012Z,100692.66
2022-08-02T16:46:10.114Z,100695.47
2022-08-02T16:48:36.858Z,100694.50
2022-08-02T16:54:00.483Z,100689.28
2022-08-02T16:56:26.401Z,100688.00
2022-08-02T16:58:53.277Z,100686.84
2022-08-02T17:01:27.305Z,100682.88
2022-08-02T17:03:56.292Z,100687.47
2022-08-02T17:06:26.307Z,100684.78
2022-08-02T17:08:56.218Z,100685.50
2022-08-02T17:11:23.864Z,100676.72
2022-08-02T17:13:51.728Z,100675.22
2022-08-02T17:16:20.645Z,100681.34
2022-08-02T17:18:53.989Z,100682.88
2022-08-02T17:21:21.116Z,100679.78
2022-08-02T17:24:05.486Z,100681.53
2022-08-02T17:26:36.147Z,100674.22
2022-08-02T17:29:15.405Z,100680.03
2022-08-02T17:32:05.947Z,100681.53
2022-08-02T17:34:31.837Z,100675.19
2022-08-02T17:36:58.310Z,100674.59
2022-08-02T17:39:24.786Z,100675.63
2022-08-02T17:42:00.663Z,100678.13
2022-08-02T17:44:36.578Z,100676.66
2022-08-02T17:47:06.689Z,100669.94
2022-08-02T17:49:35.356Z,100684.25
2022-08-02T17:52:48.344Z,100672.44
2022-08-02T17:54:51.549Z,100673.50
2022-08-02T17:57:19.298Z,100670.34
2022-08-02T18:00:04.430Z,100674.31
2022-08-02T18:02:31.291Z,100669.94
2022-08-02T18:04:57.738Z,100672.03
2022-08-02T18:07:25.270Z,100674.13
2022-08-02T18:09:52.215Z,100669.75
2022-08-02T18:12:20.242Z,100672.31
2022-08-02T18:14:49.091Z,100670.44
2022-08-02T18:17:16.836Z,100679.03
2022-08-02T18:19:57.313Z,100678.38
2022-08-02T18:22:30.309Z,100677.97
2022-08-02T18:24:56.989Z,100684.28
2022-08-02T18:27:23.681Z,100681.53
2022-08-02T18:30:00.177Z,100678.56
2022-08-02T18:33:55.319Z,100679.44
2022-08-02T18:35:18.533Z,100678.38
2022-08-02T18:37:50.359Z,100681.34
2022-08-02T18:40:23.669Z,100677.13
2022-08-02T18:42:50.217Z,100683.19
2022-08-02T18:45:20.006Z,100683.81
2022-08-02T18:47:50.724Z,100686.78
2022-08-02T18:50:19.657Z,100687.81
2022-08-02T18:52:47.850Z,100685.09
2022-08-02T18:55:17.663Z,100682.06
2022-08-02T18:58:18.099Z,100683.59
2022-08-02T19:00:47.705Z,100687.16
2022-08-02T19:03:18.919Z,100690.06
2022-08-02T19:05:51.594Z,100683.31
2022-08-02T19:08:18.670Z,100686.63
2022-08-02T19:10:49.327Z,100681.16
2022-08-02T19:13:18.322Z,100679.84
2022-08-02T19:15:44.846Z,100682.66
2022-08-02T19:18:14.411Z,100681.88
2022-08-02T19:20:40.953Z,100686.09
2022-08-02T19:23:15.180Z,100689.69
2022-08-02T19:25:50.089Z,100690.94
2022-08-02T19:28:16.808Z,100690.78
2022-08-02T19:30:52.928Z,100688.41
2022-08-02T19:33:54.960Z,100686.50
2022-08-02T19:36:06.572Z,100683.88
2022-08-02T19:38:33.061Z,100680.03
2022-08-02T19:40:59.727Z,100690.28
2022-08-02T19:44:27.203Z,100695.81
2022-08-02T19:46:15.891Z,100699.25
2022-08-02T19:48:42.773Z,100699.28
2022-08-02T19:51:12.889Z,100702.50
2022-08-02T19:53:46.935Z,100702.22
2022-08-02T19:56:21.064Z,100698.72
2022-08-02T19:58:52.105Z,100698.25
2022-08-02T20:01:23.456Z,100701.91
2022-08-02T20:03:53.807Z,100707.03
2022-08-02T20:06:26.436Z,100712.66
2022-08-02T20:08:58.937Z,100713.31
2022-08-02T20:11:35.099Z,100709.94
2022-08-02T20:14:03.294Z,100704.91
2022-08-02T20:16:32.854Z,100709.69
2022-08-02T20:19:16.321Z,100708.00
2022-08-02T20:21:46.515Z,100710.44
2022-08-02T20:24:19.532Z,100713.00
2022-08-02T20:26:47.809Z,100710.59
2022-08-02T20:29:42.280Z,100708.88
2022-08-02T20:32:03.980Z,100711.34
2022-08-02T20:34:30.991Z,100701.66
2022-08-02T20:36:57.445Z,100705.34
2022-08-02T20:39:24.437Z,100716.63
2022-08-02T20:42:23.441Z,100727.63
2022-08-02T20:44:56.191Z,100735.22
2022-08-02T20:47:27.687Z,100733.00
2022-08-02T20:50:14.234Z,100731.72
2022-08-02T20:52:42.945Z,100733.19
2022-08-02T20:55:09.848Z,100736.66
2022-08-02T20:58:00.496Z,100740.94
2022-08-02T21:00:28.400Z,100740.59
2022-08-02T21:02:55.378Z,100741.44
2022-08-02T21:05:26.762Z,100739.91
2022-08-02T21:08:13.762Z,100739.63
2022-08-02T21:10:43.509Z,100740.25
2022-08-02T21:13:13.970Z,100740.47
2022-08-02T21:15:45.943Z,100737.47
2022-08-02T21:18:25.398Z,100740.38
2022-08-02T21:20:57.580Z,100737.03
2022-08-02T21:23:24.268Z,100747.66
2022-08-02T21:25:56.875Z,100744.00
2022-08-02T21:28:24.818Z,100742.56
2022-08-02T21:31:10.574Z,100738.66
2022-08-02T21:33:57.040Z,100728.97
2022-08-02T21:36:25.079Z,100735.63
2022-08-02T21:38:58.063Z,100732.78
2022-08-02T21:41:24.542Z,100724.28
2022-08-02T21:44:07.036Z,100732.88
2022-08-02T21:46:33.461Z,100735.78
2022-08-02T21:49:01.367Z,100740.94
2022-08-02T21:51:27.866Z,100728.53
2022-08-02T21:54:18.885Z,100737.69
2022-08-02T21:56:42.207Z,100730.25
2022-08-02T22:01:56.870Z,100733.94
2022-08-02T22:04:25.304Z,100737.09
2022-08-02T22:06:52.513Z,100732.44
2022-08-02T22:09:43.628Z,100740.28
2022-08-02T22:12:09.816Z,100734.56
2022-08-02T22:14:39.470Z,100740.94
2022-08-02T22:17:08.650Z,100728.31
2022-08-02T22:19:36.084Z,100739.06
2022-08-02T22:22:02.566Z,100743.25
2022-08-02T22:24:30.247Z,100745.44
2022-08-02T22:26:57.326Z,100746.47
2022-08-02T22:29:23.825Z,100743.94
2022-08-02T22:31:50.313Z,100745.72
2022-08-02T22:34:36.913Z,100744.69
2022-08-02T22:37:07.231Z,100736.44
2022-08-02T22:39:34.187Z,100742.28
2022-08-02T22:42:14.766Z,100748.00
2022-08-02T22:44:41.313Z,100750.06
2022-08-02T22:47:14.951Z,100751.44
2022-08-02T22:49:44.592Z,100751.72
2022-08-02T22:52:14.190Z,100746.06
2022-08-02T22:54:41.076Z,100750.66
2022-08-02T22:57:11.425Z,100750.78
2022-08-02T22:59:03.936Z,100733.06
2022-08-02T22:59:39.789Z,100742.44
2022-08-02T23:02:07.188Z,100746.63
2022-08-02T23:04:33.772Z,100749.28
2022-08-02T23:07:00.323Z,100746.53
2022-08-02T23:09:26.898Z,100745.78
2022-08-02T23:11:53.427Z,100750.50
2022-08-02T23:14:20.328Z,100744.84
2022-08-02T23:17:05.446Z,100744.19
2022-08-02T23:19:50.376Z,100746.31
2022-08-02T23:22:18.531Z,100752.66
2022-08-02T23:24:46.107Z,100744.13
2022-08-02T23:27:12.605Z,100753.06
2022-08-02T23:29:39.136Z,100749.06
2022-08-02T23:32:05.834Z,100737.13
2022-08-02T23:34:33.435Z,100735.56
2022-08-02T23:37:00.282Z,100741.41
2022-08-02T23:39:26.790Z,100731.97
2022-08-02T23:41:55.214Z,100730.34
2022-08-02T23:44:22.860Z,100734.19
2022-08-02T23:46:49.395Z,100731.31
2022-08-02T23:49:16.091Z,100730.78
2022-08-02T23:51:43.307Z,100730.78
2022-08-02T23:54:10.532Z,100719.72
2022-08-02T23:56:37.879Z,100738.75
2022-08-02T23:59:07.533Z,100730.78
